sensor_id;sensor_type;location;lat;lon;timestamp;P1;durP1;ratioP1;P2;durP2;ratioP2
11691;SDS011;33659;42.672;23.354;2022-12-17T00:00:40;20.20;;;11.83;;
11691;SDS011;33659;42.672;23.354;2022-12-17T00:03:24;19.17;;;12.37;;
11691;SDS011;33659;42.672;23.354;2022-12-17T00:06:08;17.47;;;12.10;;
11691;SDS011;33659;42.672;23.354;2022-12-17T00:08:54;22.83;;;14.53;;
11691;SDS011;33659;42.672;23.354;2022-12-17T00:11:38;20.30;;;12.93;;
11691;SDS011;33659;42.672;23.354;2022-12-17T00:14:22;20.63;;;12.93;;
11691;SDS011;33659;42.672;23.354;2022-12-17T00:17:06;16.97;;;11.07;;
11691;SDS011;33659;42.672;23.354;2022-12-17T00:19:50;18.43;;;12.37;;
11691;SDS011;33659;42.672;23.354;2022-12-17T00:22:33;17.53;;;11.53;;
11691;SDS011;33659;42.672;23.354;2022-12-17T00:25:18;20.43;;;12.60;;
11691;SDS011;33659;42.672;23.354;2022-12-17T00:28:01;17.20;;;10.47;;
11691;SDS011;33659;42.672;23.354;2022-12-17T00:30:49;15.67;;;10.67;;
11691;SDS011;33659;42.672;23.354;2022-12-17T00:33:33;22.63;;;12.33;;
11691;SDS011;33659;42.672;23.354;2022-12-17T00:36:17;16.23;;;10.90;;
11691;SDS011;33659;42.672;23.354;2022-12-17T00:39:01;17.70;;;11.33;;
11691;SDS011;33659;42.672;23.354;2022-12-17T00:41:46;20.23;;;11.70;;
11691;SDS011;33659;42.672;23.354;2022-12-17T00:44:27;13.77;;;8.33;;
11691;SDS011;33659;42.672;23.354;2022-12-17T00:47:11;11.70;;;8.73;;
11691;SDS011;33659;42.672;23.354;2022-12-17T00:49:55;15.93;;;10.30;;
11691;SDS011;33659;42.672;23.354;2022-12-17T00:52:39;14.67;;;10.63;;
11691;SDS011;33659;42.672;23.354;2022-12-17T00:55:23;15.03;;;10.40;;
11691;SDS011;33659;42.672;23.354;2022-12-17T00:58:08;15.20;;;10.97;;
11691;SDS011;33659;42.672;23.354;2022-12-17T01:00:56;16.83;;;10.53;;
11691;SDS011;33659;42.672;23.354;2022-12-17T01:03:43;17.70;;;11.20;;
11691;SDS011;33659;42.672;23.354;2022-12-17T01:06:27;14.67;;;9.97;;
11691;SDS011;33659;42.672;23.354;2022-12-17T01:09:11;15.83;;;9.30;;
11691;SDS011;33659;42.672;23.354;2022-12-17T01:11:55;14.03;;;9.53;;
11691;SDS011;33659;42.672;23.354;2022-12-17T01:14:40;13.53;;;10.30;;
11691;SDS011;33659;42.672;23.354;2022-12-17T01:17:25;16.40;;;10.80;;
11691;SDS011;33659;42.672;23.354;2022-12-17T01:20:09;18.40;;;11.47;;
11691;SDS011;33659;42.672;23.354;2022-12-17T01:22:53;19.50;;;11.83;;
11691;SDS011;33659;42.672;23.354;2022-12-17T01:25:37;17.17;;;10.73;;
11691;SDS011;33659;42.672;23.354;2022-12-17T01:28:21;16.30;;;9.53;;
11691;SDS011;33659;42.672;23.354;2022-12-17T01:31:07;15.67;;;11.07;;
11691;SDS011;33659;42.672;23.354;2022-12-17T01:33:52;14.73;;;9.77;;
11691;SDS011;33659;42.672;23.354;2022-12-17T01:36:36;17.33;;;10.00;;
11691;SDS011;33659;42.672;23.354;2022-12-17T01:39:20;17.43;;;10.33;;
11691;SDS011;33659;42.672;23.354;2022-12-17T01:42:07;15.17;;;9.60;;
11691;SDS011;33659;42.672;23.354;2022-12-17T01:45:09;12.97;;;9.13;;
11691;SDS011;33659;42.672;23.354;2022-12-17T01:47:57;13.57;;;9.70;;
11691;SDS011;33659;42.672;23.354;2022-12-17T01:50:45;15.57;;;10.20;;
11691;SDS011;33659;42.672;23.354;2022-12-17T01:53:33;16.83;;;10.37;;
11691;SDS011;33659;42.672;23.354;2022-12-17T01:56:18;20.87;;;11.07;;
11691;SDS011;33659;42.672;23.354;2022-12-17T01:59:04;11.67;;;9.03;;
11691;SDS011;33659;42.672;23.354;2022-12-17T02:01:50;16.47;;;10.27;;
11691;SDS011;33659;42.672;23.354;2022-12-17T02:04:36;15.10;;;9.33;;
11691;SDS011;33659;42.672;23.354;2022-12-17T02:07:37;14.37;;;10.03;;
11691;SDS011;33659;42.672;23.354;2022-12-17T02:10:30;13.07;;;9.00;;
11691;SDS011;33659;42.672;23.354;2022-12-17T02:13:23;14.43;;;8.43;;
11691;SDS011;33659;42.672;23.354;2022-12-17T02:16:14;13.83;;;9.73;;
11691;SDS011;33659;42.672;23.354;2022-12-17T02:19:03;15.97;;;9.70;;
11691;SDS011;33659;42.672;23.354;2022-12-17T02:21:58;12.17;;;8.43;;
11691;SDS011;33659;42.672;23.354;2022-12-17T02:24:52;14.30;;;9.10;;
11691;SDS011;33659;42.672;23.354;2022-12-17T02:27:42;14.50;;;9.17;;
11691;SDS011;33659;42.672;23.354;2022-12-17T02:30:27;12.93;;;9.20;;
11691;SDS011;33659;42.672;23.354;2022-12-17T02:33:12;14.90;;;8.73;;
11691;SDS011;33659;42.672;23.354;2022-12-17T02:35:57;10.90;;;8.17;;
11691;SDS011;33659;42.672;23.354;2022-12-17T02:38:46;12.70;;;8.33;;
11691;SDS011;33659;42.672;23.354;2022-12-17T02:41:30;15.43;;;8.17;;
11691;SDS011;33659;42.672;23.354;2022-12-17T02:44:20;11.57;;;8.47;;
11691;SDS011;33659;42.672;23.354;2022-12-17T02:47:06;10.43;;;7.33;;
11691;SDS011;33659;42.672;23.354;2022-12-17T02:49:52;12.67;;;8.03;;
11691;SDS011;33659;42.672;23.354;2022-12-17T02:52:48;11.03;;;7.37;;
11691;SDS011;33659;42.672;23.354;2022-12-17T02:55:33;12.73;;;7.50;;
11691;SDS011;33659;42.672;23.354;2022-12-17T02:58:17;11.93;;;7.70;;
11691;SDS011;33659;42.672;23.354;2022-12-17T03:01:03;11.87;;;8.57;;
11691;SDS011;33659;42.672;23.354;2022-12-17T03:03:47;14.17;;;8.37;;
11691;SDS011;33659;42.672;23.354;2022-12-17T03:06:31;9.53;;;7.47;;
11691;SDS011;33659;42.672;23.354;2022-12-17T03:09:15;10.97;;;8.10;;
11691;SDS011;33659;42.672;23.354;2022-12-17T03:11:59;11.23;;;8.70;;
11691;SDS011;33659;42.672;23.354;2022-12-17T03:14:43;14.07;;;8.23;;
11691;SDS011;33659;42.672;23.354;2022-12-17T03:17:29;12.23;;;8.17;;
11691;SDS011;33659;42.672;23.354;2022-12-17T03:20:13;13.37;;;8.53;;
11691;SDS011;33659;42.672;23.354;2022-12-17T03:23:01;9.73;;;7.17;;
11691;SDS011;33659;42.672;23.354;2022-12-17T03:25:46;12.30;;;7.83;;
11691;SDS011;33659;42.672;23.354;2022-12-17T03:28:30;11.63;;;8.07;;
11691;SDS011;33659;42.672;23.354;2022-12-17T03:31:14;10.43;;;8.03;;
11691;SDS011;33659;42.672;23.354;2022-12-17T03:33:59;13.30;;;9.13;;
11691;SDS011;33659;42.672;23.354;2022-12-17T03:36:43;12.43;;;8.60;;
11691;SDS011;33659;42.672;23.354;2022-12-17T03:39:27;12.80;;;8.87;;
11691;SDS011;33659;42.672;23.354;2022-12-17T03:42:11;10.00;;;7.50;;
11691;SDS011;33659;42.672;23.354;2022-12-17T03:44:55;11.97;;;7.70;;
11691;SDS011;33659;42.672;23.354;2022-12-17T03:47:39;12.67;;;8.53;;
11691;SDS011;33659;42.672;23.354;2022-12-17T03:50:21;9.90;;;7.27;;
11691;SDS011;33659;42.672;23.354;2022-12-17T03:53:05;16.23;;;9.13;;
11691;SDS011;33659;42.672;23.354;2022-12-17T03:56:03;10.73;;;7.37;;
11691;SDS011;33659;42.672;23.354;2022-12-17T03:58:47;10.20;;;7.00;;
11691;SDS011;33659;42.672;23.354;2022-12-17T04:01:36;10.57;;;7.47;;
11691;SDS011;33659;42.672;23.354;2022-12-17T04:04:20;9.73;;;6.87;;
11691;SDS011;33659;42.672;23.354;2022-12-17T04:07:17;13.83;;;8.10;;
11691;SDS011;33659;42.672;23.354;2022-12-17T04:10:02;11.53;;;7.33;;
11691;SDS011;33659;42.672;23.354;2022-12-17T04:12:47;10.57;;;7.53;;
11691;SDS011;33659;42.672;23.354;2022-12-17T04:15:31;10.70;;;7.17;;
11691;SDS011;33659;42.672;23.354;2022-12-17T04:18:11;8.60;;;6.13;;
11691;SDS011;33659;42.672;23.354;2022-12-17T04:20:55;9.93;;;7.27;;
11691;SDS011;33659;42.672;23.354;2022-12-17T04:23:41;9.37;;;7.10;;
11691;SDS011;33659;42.672;23.354;2022-12-17T04:26:25;10.43;;;6.77;;
11691;SDS011;33659;42.672;23.354;2022-12-17T04:29:08;9.07;;;7.00;;
11691;SDS011;33659;42.672;23.354;2022-12-17T04:31:52;8.87;;;6.67;;
11691;SDS011;33659;42.672;23.354;2022-12-17T04:34:36;9.50;;;7.00;;
11691;SDS011;33659;42.672;23.354;2022-12-17T04:37:20;8.87;;;6.10;;
11691;SDS011;33659;42.672;23.354;2022-12-17T04:40:07;9.23;;;5.87;;
11691;SDS011;33659;42.672;23.354;2022-12-17T04:42:52;14.73;;;7.20;;
11691;SDS011;33659;42.672;23.354;2022-12-17T04:45:36;11.10;;;6.70;;
11691;SDS011;33659;42.672;23.354;2022-12-17T04:48:20;8.90;;;5.80;;
11691;SDS011;33659;42.672;23.354;2022-12-17T04:51:04;9.83;;;6.00;;
11691;SDS011;33659;42.672;23.354;2022-12-17T04:53:48;9.87;;;6.83;;
11691;SDS011;33659;42.672;23.354;2022-12-17T04:56:34;6.33;;;5.67;;
11691;SDS011;33659;42.672;23.354;2022-12-17T04:59:18;10.97;;;5.67;;
11691;SDS011;33659;42.672;23.354;2022-12-17T05:02:02;8.63;;;6.63;;
11691;SDS011;33659;42.672;23.354;2022-12-17T05:04:46;8.13;;;6.33;;
11691;SDS011;33659;42.672;23.354;2022-12-17T05:07:30;7.30;;;5.27;;
11691;SDS011;33659;42.672;23.354;2022-12-17T05:10:14;10.37;;;6.50;;
11691;SDS011;33659;42.672;23.354;2022-12-17T05:13:00;7.70;;;6.27;;
11691;SDS011;33659;42.672;23.354;2022-12-17T05:15:44;9.63;;;5.93;;
11691;SDS011;33659;42.672;23.354;2022-12-17T05:18:29;8.47;;;5.50;;
11691;SDS011;33659;42.672;23.354;2022-12-17T05:21:13;9.17;;;6.20;;
11691;SDS011;33659;42.672;23.354;2022-12-17T05:23:54;9.07;;;5.93;;
11691;SDS011;33659;42.672;23.354;2022-12-17T05:26:38;11.90;;;6.03;;
11691;SDS011;33659;42.672;23.354;2022-12-17T05:29:23;11.80;;;6.20;;
11691;SDS011;33659;42.672;23.354;2022-12-17T05:32:08;8.83;;;5.93;;
11691;SDS011;33659;42.672;23.354;2022-12-17T05:34:52;7.30;;;5.00;;
11691;SDS011;33659;42.672;23.354;2022-12-17T05:37:36;9.43;;;6.27;;
11691;SDS011;33659;42.672;23.354;2022-12-17T05:40:20;7.97;;;5.97;;
11691;SDS011;33659;42.672;23.354;2022-12-17T05:43:05;9.73;;;5.90;;
11691;SDS011;33659;42.672;23.354;2022-12-17T05:45:54;7.40;;;5.30;;
11691;SDS011;33659;42.672;23.354;2022-12-17T05:48:43;8.70;;;5.23;;
11691;SDS011;33659;42.672;23.354;2022-12-17T05:51:27;7.57;;;5.20;;
11691;SDS011;33659;42.672;23.354;2022-12-17T05:54:25;13.10;;;6.33;;
11691;SDS011;33659;42.672;23.354;2022-12-17T05:57:09;8.00;;;5.63;;
11691;SDS011;33659;42.672;23.354;2022-12-17T05:59:53;11.50;;;6.40;;
11691;SDS011;33659;42.672;23.354;2022-12-17T06:02:39;8.17;;;5.53;;
11691;SDS011;33659;42.672;23.354;2022-12-17T06:05:23;10.20;;;6.37;;
11691;SDS011;33659;42.672;23.354;2022-12-17T06:08:07;9.17;;;6.13;;
11691;SDS011;33659;42.672;23.354;2022-12-17T06:10:52;8.43;;;5.87;;
11691;SDS011;33659;42.672;23.354;2022-12-17T06:13:36;7.83;;;5.43;;
11691;SDS011;33659;42.672;23.354;2022-12-17T06:16:21;8.27;;;5.43;;
11691;SDS011;33659;42.672;23.354;2022-12-17T06:19:07;7.83;;;5.80;;
11691;SDS011;33659;42.672;23.354;2022-12-17T06:22:02;7.40;;;5.00;;
11691;SDS011;33659;42.672;23.354;2022-12-17T06:24:46;7.23;;;5.60;;
11691;SDS011;33659;42.672;23.354;2022-12-17T06:27:30;9.07;;;6.13;;
11691;SDS011;33659;42.672;23.354;2022-12-17T06:30:14;9.27;;;5.90;;
11691;SDS011;33659;42.672;23.354;2022-12-17T06:33:02;9.00;;;6.40;;
11691;SDS011;33659;42.672;23.354;2022-12-17T06:35:50;9.77;;;5.63;;
11691;SDS011;33659;42.672;23.354;2022-12-17T06:38:35;9.07;;;6.17;;
11691;SDS011;33659;42.672;23.354;2022-12-17T06:41:19;9.57;;;7.57;;
11691;SDS011;33659;42.672;23.354;2022-12-17T06:44:03;12.77;;;7.33;;
11691;SDS011;33659;42.672;23.354;2022-12-17T06:46:48;9.67;;;7.20;;
11691;SDS011;33659;42.672;23.354;2022-12-17T06:49:34;11.37;;;6.80;;
11691;SDS011;33659;42.672;23.354;2022-12-17T06:52:19;8.90;;;6.57;;
11691;SDS011;33659;42.672;23.354;2022-12-17T06:55:04;9.43;;;6.37;;
11691;SDS011;33659;42.672;23.354;2022-12-17T06:57:54;9.10;;;6.53;;
11691;SDS011;33659;42.672;23.354;2022-12-17T07:00:38;8.60;;;6.20;;
11691;SDS011;33659;42.672;23.354;2022-12-17T07:03:22;10.17;;;6.43;;
11691;SDS011;33659;42.672;23.354;2022-12-17T07:06:07;8.57;;;7.00;;
11691;SDS011;33659;42.672;23.354;2022-12-17T07:08:52;10.57;;;8.37;;
11691;SDS011;33659;42.672;23.354;2022-12-17T07:11:37;13.37;;;7.57;;
11691;SDS011;33659;42.672;23.354;2022-12-17T07:14:20;11.33;;;6.70;;
11691;SDS011;33659;42.672;23.354;2022-12-17T07:17:04;8.87;;;7.23;;
11691;SDS011;33659;42.672;23.354;2022-12-17T07:19:47;12.17;;;6.87;;
11691;SDS011;33659;42.672;23.354;2022-12-17T07:22:32;11.60;;;7.30;;
11691;SDS011;33659;42.672;23.354;2022-12-17T07:25:17;10.50;;;7.03;;
11691;SDS011;33659;42.672;23.354;2022-12-17T07:28:01;8.87;;;6.60;;
11691;SDS011;33659;42.672;23.354;2022-12-17T07:30:45;9.47;;;5.90;;
11691;SDS011;33659;42.672;23.354;2022-12-17T07:33:29;12.37;;;7.53;;
11691;SDS011;33659;42.672;23.354;2022-12-17T07:36:13;10.57;;;6.97;;
11691;SDS011;33659;42.672;23.354;2022-12-17T07:39:12;8.53;;;6.33;;
11691;SDS011;33659;42.672;23.354;2022-12-17T07:41:57;10.67;;;6.67;;
11691;SDS011;33659;42.672;23.354;2022-12-17T07:44:41;12.77;;;7.10;;
11691;SDS011;33659;42.672;23.354;2022-12-17T07:47:25;10.77;;;5.93;;
11691;SDS011;33659;42.672;23.354;2022-12-17T07:50:09;10.83;;;6.80;;
11691;SDS011;33659;42.672;23.354;2022-12-17T07:52:59;11.77;;;8.20;;
11691;SDS011;33659;42.672;23.354;2022-12-17T07:55:43;10.90;;;7.07;;
11691;SDS011;33659;42.672;23.354;2022-12-17T07:58:28;11.33;;;7.27;;
11691;SDS011;33659;42.672;23.354;2022-12-17T08:01:13;9.43;;;6.93;;
11691;SDS011;33659;42.672;23.354;2022-12-17T08:03:57;8.60;;;6.70;;
11691;SDS011;33659;42.672;23.354;2022-12-17T08:06:41;10.40;;;6.40;;
11691;SDS011;33659;42.672;23.354;2022-12-17T08:09:25;10.83;;;6.97;;
11691;SDS011;33659;42.672;23.354;2022-12-17T08:12:09;10.07;;;7.23;;
11691;SDS011;33659;42.672;23.354;2022-12-17T08:14:54;14.07;;;7.30;;
11691;SDS011;33659;42.672;23.354;2022-12-17T08:17:38;9.57;;;6.03;;
11691;SDS011;33659;42.672;23.354;2022-12-17T08:20:21;10.73;;;6.33;;
11691;SDS011;33659;42.672;23.354;2022-12-17T08:23:05;12.60;;;6.17;;
11691;SDS011;33659;42.672;23.354;2022-12-17T08:25:49;7.73;;;5.90;;
11691;SDS011;33659;42.672;23.354;2022-12-17T08:28:33;8.47;;;6.17;;
11691;SDS011;33659;42.672;23.354;2022-12-17T08:31:19;9.73;;;5.90;;
11691;SDS011;33659;42.672;23.354;2022-12-17T08:34:03;10.77;;;6.00;;
11691;SDS011;33659;42.672;23.354;2022-12-17T08:36:47;11.23;;;6.53;;
11691;SDS011;33659;42.672;23.354;2022-12-17T08:39:31;10.00;;;5.40;;
11691;SDS011;33659;42.672;23.354;2022-12-17T08:42:15;9.27;;;6.90;;
11691;SDS011;33659;42.672;23.354;2022-12-17T08:44:59;12.17;;;6.93;;
11691;SDS011;33659;42.672;23.354;2022-12-17T08:47:44;9.70;;;7.00;;
11691;SDS011;33659;42.672;23.354;2022-12-17T08:50:28;12.30;;;7.73;;
11691;SDS011;33659;42.672;23.354;2022-12-17T08:53:12;11.33;;;7.60;;
11691;SDS011;33659;42.672;23.354;2022-12-17T08:55:56;7.63;;;5.88;;
11691;SDS011;33659;42.672;23.354;2022-12-17T08:58:40;7.37;;;4.83;;
11691;SDS011;33659;42.672;23.354;2022-12-17T09:01:23;7.47;;;4.40;;
11691;SDS011;33659;42.672;23.354;2022-12-17T09:04:09;6.07;;;3.27;;
11691;SDS011;33659;42.672;23.354;2022-12-17T09:06:53;3.80;;;3.20;;
11691;SDS011;33659;42.672;23.354;2022-12-17T09:09:37;3.17;;;2.70;;
11691;SDS011;33659;42.672;23.354;2022-12-17T09:12:21;4.00;;;3.00;;
11691;SDS011;33659;42.672;23.354;2022-12-17T09:15:05;4.40;;;2.77;;
11691;SDS011;33659;42.672;23.354;2022-12-17T09:17:50;5.55;;;2.97;;
11691;SDS011;33659;42.672;23.354;2022-12-17T09:20:36;6.95;;;3.13;;
11691;SDS011;33659;42.672;23.354;2022-12-17T09:23:20;3.22;;;2.75;;
11691;SDS011;33659;42.672;23.354;2022-12-17T09:26:04;4.78;;;3.35;;
11691;SDS011;33659;42.672;23.354;2022-12-17T09:28:48;7.68;;;3.15;;
11691;SDS011;33659;42.672;23.354;2022-12-17T09:31:32;4.93;;;3.00;;
11691;SDS011;33659;42.672;23.354;2022-12-17T09:34:17;5.20;;;2.63;;
11691;SDS011;33659;42.672;23.354;2022-12-17T09:37:03;4.87;;;3.43;;
11691;SDS011;33659;42.672;23.354;2022-12-17T09:39:48;4.93;;;2.50;;
11691;SDS011;33659;42.672;23.354;2022-12-17T09:42:33;3.13;;;2.53;;
11691;SDS011;33659;42.672;23.354;2022-12-17T09:45:25;4.70;;;2.50;;
11691;SDS011;33659;42.672;23.354;2022-12-17T09:48:15;2.73;;;2.07;;
11691;SDS011;33659;42.672;23.354;2022-12-17T09:51:07;3.23;;;2.30;;
11691;SDS011;33659;42.672;23.354;2022-12-17T09:54:05;7.67;;;3.37;;
11691;SDS011;33659;42.672;23.354;2022-12-17T09:56:54;4.77;;;2.50;;
11691;SDS011;33659;42.672;23.354;2022-12-17T09:59:39;5.10;;;2.20;;
11691;SDS011;33659;42.672;23.354;2022-12-17T10:02:24;3.33;;;2.70;;
11691;SDS011;33659;42.672;23.354;2022-12-17T10:05:12;4.97;;;2.30;;
11691;SDS011;33659;42.672;23.354;2022-12-17T10:08:00;3.47;;;1.87;;
11691;SDS011;33659;42.672;23.354;2022-12-17T10:10:49;2.50;;;2.10;;
11691;SDS011;33659;42.672;23.354;2022-12-17T10:13:33;3.70;;;2.53;;
11691;SDS011;33659;42.672;23.354;2022-12-17T10:16:19;7.20;;;2.50;;
11691;SDS011;33659;42.672;23.354;2022-12-17T10:19:09;3.27;;;2.50;;
11691;SDS011;33659;42.672;23.354;2022-12-17T10:22:04;2.43;;;2.07;;
11691;SDS011;33659;42.672;23.354;2022-12-17T10:24:50;3.57;;;2.40;;
11691;SDS011;33659;42.672;23.354;2022-12-17T10:27:35;3.97;;;2.20;;
11691;SDS011;33659;42.672;23.354;2022-12-17T10:30:19;1.67;;;1.57;;
11691;SDS011;33659;42.672;23.354;2022-12-17T10:33:04;1.33;;;1.23;;
11691;SDS011;33659;42.672;23.354;2022-12-17T10:35:57;1.63;;;1.00;;
11691;SDS011;33659;42.672;23.354;2022-12-17T10:38:41;1.83;;;1.00;;
11691;SDS011;33659;42.672;23.354;2022-12-17T10:41:26;2.70;;;1.17;;
11691;SDS011;33659;42.672;23.354;2022-12-17T10:44:26;1.07;;;1.00;;
11691;SDS011;33659;42.672;23.354;2022-12-17T10:47:11;1.03;;;1.03;;
11691;SDS011;33659;42.672;23.354;2022-12-17T10:49:57;1.37;;;1.13;;
11691;SDS011;33659;42.672;23.354;2022-12-17T10:52:43;5.10;;;1.30;;
11691;SDS011;33659;42.672;23.354;2022-12-17T10:55:29;1.17;;;1.10;;
11691;SDS011;33659;42.672;23.354;2022-12-17T10:58:15;2.63;;;1.00;;
11691;SDS011;33659;42.672;23.354;2022-12-17T11:01:04;1.13;;;1.03;;
11691;SDS011;33659;42.672;23.354;2022-12-17T11:03:50;0.93;;;0.87;;
11691;SDS011;33659;42.672;23.354;2022-12-17T11:06:36;1.03;;;1.03;;
11691;SDS011;33659;42.672;23.354;2022-12-17T11:09:28;0.55;;;0.55;;
11691;SDS011;33659;42.672;23.354;2022-12-17T11:12:17;1.53;;;1.00;;
11691;SDS011;33659;42.672;23.354;2022-12-17T11:15:07;0.82;;;0.80;;
11691;SDS011;33659;42.672;23.354;2022-12-17T11:18:01;0.88;;;0.88;;
11691;SDS011;33659;42.672;23.354;2022-12-17T11:20:50;0.95;;;0.95;;
11691;SDS011;33659;42.672;23.354;2022-12-17T11:23:40;1.15;;;1.02;;
11691;SDS011;33659;42.672;23.354;2022-12-17T11:26:29;1.35;;;1.25;;
11691;SDS011;33659;42.672;23.354;2022-12-17T11:29:16;1.83;;;1.10;;
11691;SDS011;33659;42.672;23.354;2022-12-17T11:32:12;1.20;;;1.10;;
11691;SDS011;33659;42.672;23.354;2022-12-17T11:35:13;1.48;;;1.08;;
11691;SDS011;33659;42.672;23.354;2022-12-17T11:38:06;1.88;;;1.27;;
11691;SDS011;33659;42.672;23.354;2022-12-17T11:41:00;3.63;;;2.45;;
11691;SDS011;33659;42.672;23.354;2022-12-17T11:43:51;3.55;;;2.90;;
11691;SDS011;33659;42.672;23.354;2022-12-17T11:46:42;3.20;;;2.47;;
11691;SDS011;33659;42.672;23.354;2022-12-17T11:49:41;2.80;;;2.03;;
11691;SDS011;33659;42.672;23.354;2022-12-17T11:52:33;4.80;;;2.15;;
11691;SDS011;33659;42.672;23.354;2022-12-17T11:55:29;3.17;;;2.22;;
11691;SDS011;33659;42.672;23.354;2022-12-17T11:58:23;1.88;;;1.73;;
11691;SDS011;33659;42.672;23.354;2022-12-17T12:01:15;4.15;;;2.30;;
11691;SDS011;33659;42.672;23.354;2022-12-17T12:04:15;3.10;;;2.25;;
11691;SDS011;33659;42.672;23.354;2022-12-17T12:07:15;2.30;;;2.10;;
11691;SDS011;33659;42.672;23.354;2022-12-17T12:10:09;2.53;;;2.33;;
11691;SDS011;33659;42.672;23.354;2022-12-17T12:13:02;4.03;;;2.60;;
11691;SDS011;33659;42.672;23.354;2022-12-17T12:15:54;5.68;;;2.55;;
11691;SDS011;33659;42.672;23.354;2022-12-17T12:18:49;2.88;;;2.58;;
11691;SDS011;33659;42.672;23.354;2022-12-17T12:21:38;6.50;;;2.97;;
11691;SDS011;33659;42.672;23.354;2022-12-17T12:24:27;5.95;;;3.58;;
11691;SDS011;33659;42.672;23.354;2022-12-17T12:27:30;4.78;;;2.92;;
11691;SDS011;33659;42.672;23.354;2022-12-17T12:30:24;5.30;;;2.92;;
11691;SDS011;33659;42.672;23.354;2022-12-17T12:33:16;4.17;;;2.87;;
11691;SDS011;33659;42.672;23.354;2022-12-17T12:36:09;4.45;;;2.95;;
11691;SDS011;33659;42.672;23.354;2022-12-17T12:38:58;7.18;;;4.20;;
11691;SDS011;33659;42.672;23.354;2022-12-17T12:41:46;6.47;;;3.00;;
11691;SDS011;33659;42.672;23.354;2022-12-17T12:44:39;5.00;;;3.40;;
11691;SDS011;33659;42.672;23.354;2022-12-17T12:47:31;4.70;;;3.33;;
11691;SDS011;33659;42.672;23.354;2022-12-17T12:50:24;5.35;;;3.33;;
11691;SDS011;33659;42.672;23.354;2022-12-17T12:53:13;5.90;;;4.10;;
11691;SDS011;33659;42.672;23.354;2022-12-17T12:55:57;8.25;;;4.35;;
11691;SDS011;33659;42.672;23.354;2022-12-17T12:58:41;7.15;;;3.95;;
11691;SDS011;33659;42.672;23.354;2022-12-17T13:01:34;6.15;;;3.90;;
11691;SDS011;33659;42.672;23.354;2022-12-17T13:04:26;6.88;;;3.88;;
11691;SDS011;33659;42.672;23.354;2022-12-17T13:07:19;6.88;;;3.75;;
11691;SDS011;33659;42.672;23.354;2022-12-17T13:09:51;5.43;;;3.27;;
11691;SDS011;33659;42.672;23.354;2022-12-17T13:12:32;6.25;;;3.60;;
11691;SDS011;33659;42.672;23.354;2022-12-17T13:18:05;3.08;;;2.78;;
11691;SDS011;33659;42.672;23.354;2022-12-17T13:20:54;5.93;;;3.43;;
11691;SDS011;33659;42.672;23.354;2022-12-17T13:23:25;5.28;;;3.78;;
11691;SDS011;33659;42.672;23.354;2022-12-17T13:26:14;4.60;;;3.05;;
11691;SDS011;33659;42.672;23.354;2022-12-17T13:28:47;4.30;;;3.60;;
11691;SDS011;33659;42.672;23.354;2022-12-17T13:31:24;5.05;;;3.00;;
11691;SDS011;33659;42.672;23.354;2022-12-17T13:33:57;5.15;;;4.03;;
11691;SDS011;33659;42.672;23.354;2022-12-17T13:36:33;4.38;;;3.22;;
11691;SDS011;33659;42.672;23.354;2022-12-17T13:39:11;5.25;;;3.30;;
11691;SDS011;33659;42.672;23.354;2022-12-17T13:41:51;4.28;;;3.30;;
11691;SDS011;33659;42.672;23.354;2022-12-17T13:44:20;4.03;;;3.03;;
11691;SDS011;33659;42.672;23.354;2022-12-17T13:46:49;5.80;;;2.97;;
11691;SDS011;33659;42.672;23.354;2022-12-17T13:49:19;4.00;;;3.60;;
11691;SDS011;33659;42.672;23.354;2022-12-17T13:51:47;4.23;;;3.23;;
11691;SDS011;33659;42.672;23.354;2022-12-17T13:54:25;3.80;;;3.10;;
11691;SDS011;33659;42.672;23.354;2022-12-17T13:56:52;4.43;;;3.35;;
11691;SDS011;33659;42.672;23.354;2022-12-17T13:59:20;4.68;;;3.67;;
11691;SDS011;33659;42.672;23.354;2022-12-17T14:01:50;5.75;;;4.15;;
11691;SDS011;33659;42.672;23.354;2022-12-17T14:04:20;5.03;;;3.53;;
11691;SDS011;33659;42.672;23.354;2022-12-17T14:06:48;5.50;;;3.43;;
11691;SDS011;33659;42.672;23.354;2022-12-17T14:09:16;5.47;;;3.50;;
11691;SDS011;33659;42.672;23.354;2022-12-17T14:11:45;6.63;;;3.70;;
11691;SDS011;33659;42.672;23.354;2022-12-17T14:14:30;6.20;;;3.25;;
11691;SDS011;33659;42.672;23.354;2022-12-17T14:16:59;7.13;;;4.00;;
11691;SDS011;33659;42.672;23.354;2022-12-17T14:19:27;5.00;;;3.60;;
11691;SDS011;33659;42.672;23.354;2022-12-17T14:21:56;5.47;;;4.13;;
11691;SDS011;33659;42.672;23.354;2022-12-17T14:24:23;5.00;;;4.03;;
11691;SDS011;33659;42.672;23.354;2022-12-17T14:26:54;4.85;;;3.92;;
11691;SDS011;33659;42.672;23.354;2022-12-17T14:29:22;6.57;;;3.78;;
11691;SDS011;33659;42.672;23.354;2022-12-17T14:31:50;8.00;;;4.05;;
11691;SDS011;33659;42.672;23.354;2022-12-17T14:34:18;9.20;;;4.18;;
11691;SDS011;33659;42.672;23.354;2022-12-17T14:36:46;6.43;;;4.20;;
11691;SDS011;33659;42.672;23.354;2022-12-17T14:39:21;6.38;;;4.68;;
11691;SDS011;33659;42.672;23.354;2022-12-17T14:41:49;7.07;;;4.87;;
11691;SDS011;33659;42.672;23.354;2022-12-17T14:44:34;6.60;;;4.82;;
11691;SDS011;33659;42.672;23.354;2022-12-17T14:47:08;6.27;;;4.63;;
11691;SDS011;33659;42.672;23.354;2022-12-17T14:49:46;6.95;;;4.65;;
11691;SDS011;33659;42.672;23.354;2022-12-17T14:52:29;7.18;;;4.80;;
11691;SDS011;33659;42.672;23.354;2022-12-17T14:57:52;7.63;;;4.97;;
11691;SDS011;33659;42.672;23.354;2022-12-17T15:00:31;8.30;;;5.33;;
11691;SDS011;33659;42.672;23.354;2022-12-17T15:02:58;11.20;;;5.37;;
11691;SDS011;33659;42.672;23.354;2022-12-17T15:05:25;8.47;;;5.40;;
11691;SDS011;33659;42.672;23.354;2022-12-17T15:07:53;9.73;;;6.25;;
11691;SDS011;33659;42.672;23.354;2022-12-17T15:10:20;8.03;;;4.90;;
11691;SDS011;33659;42.672;23.354;2022-12-17T15:12:47;12.33;;;6.90;;
11691;SDS011;33659;42.672;23.354;2022-12-17T15:15:15;6.93;;;5.72;;
11691;SDS011;33659;42.672;23.354;2022-12-17T15:17:42;10.25;;;5.63;;
11691;SDS011;33659;42.672;23.354;2022-12-17T15:20:11;9.10;;;6.50;;
11691;SDS011;33659;42.672;23.354;2022-12-17T15:22:42;10.87;;;6.30;;
11691;SDS011;33659;42.672;23.354;2022-12-17T15:25:11;7.57;;;5.43;;
11691;SDS011;33659;42.672;23.354;2022-12-17T15:27:38;8.80;;;6.30;;
11691;SDS011;33659;42.672;23.354;2022-12-17T15:30:05;7.00;;;4.27;;
11691;SDS011;33659;42.672;23.354;2022-12-17T15:32:33;5.73;;;4.40;;
11691;SDS011;33659;42.672;23.354;2022-12-17T15:34:59;3.87;;;3.37;;
11691;SDS011;33659;42.672;23.354;2022-12-17T15:37:26;5.43;;;3.87;;
11691;SDS011;33659;42.672;23.354;2022-12-17T15:39:53;5.32;;;3.53;;
11691;SDS011;33659;42.672;23.354;2022-12-17T15:42:23;7.32;;;3.22;;
11691;SDS011;33659;42.672;23.354;2022-12-17T15:45:07;6.93;;;4.10;;
11691;SDS011;33659;42.672;23.354;2022-12-17T15:47:34;7.20;;;4.10;;
11691;SDS011;33659;42.672;23.354;2022-12-17T15:50:01;6.83;;;3.77;;
11691;SDS011;33659;42.672;23.354;2022-12-17T15:52:28;5.57;;;4.18;;
11691;SDS011;33659;42.672;23.354;2022-12-17T15:54:54;9.27;;;5.50;;
11691;SDS011;33659;42.672;23.354;2022-12-17T15:57:22;8.97;;;5.80;;
11691;SDS011;33659;42.672;23.354;2022-12-17T15:59:49;5.80;;;4.53;;
11691;SDS011;33659;42.672;23.354;2022-12-17T16:02:16;6.93;;;3.50;;
11691;SDS011;33659;42.672;23.354;2022-12-17T16:04:43;5.23;;;3.57;;
11691;SDS011;33659;42.672;23.354;2022-12-17T16:07:10;3.70;;;2.90;;
11691;SDS011;33659;42.672;23.354;2022-12-17T16:09:37;8.10;;;4.50;;